Roosendaal, Netherlands
Current Conditions -  °F | °C
As of 6:25 PM on Thursday 30 Oct 2014 (Local Time) from EHWO Reporting Station
Overcast Overcast  
Wind Chill: 59°   Ceiling: 9400
Heat Index: 59°   Visibility: 6mi
Dew Point: 55°   Wind: 5mph
Humidity: 88%   Direction: 170°S
Pressure: 30.15"   Gusts: NA
Location:  51.53°N, 4.47°E
Report Text: EHWO 301725Z AUTO 17004KT 9999 BKN094 OVC120 15/13 Q1021 BLU
Loading
Personal Weather Stations






























Interactive Weather Map
Tropical Storm Tracking
New forecast layout! Learn more

10-Day Weather Forecast

Advertisements
Track Severe Weather on mobile